Time;durP1;ratioP1;P1;durP2;ratioP2;P2;SDS_P1;SDS_P2;PMS_P1;PMS_P2;Temp;Humidity;BMP_temperature;BMP_pressure;BME280_temperature;BME280_humidity;BME280_pressure;Samples;Min_cycle;Max_cycle;Signal;HPM_P1;HPM_P2
2024/04/07 00:02:01;;;;;;;1.90;1.55;;;;;;;21.27;49.80;100689.77;2315191;76;51504;-83
2024/04/07 00:05:03;;;;;;;2.33;1.40;;;;;;;21.25;49.83;100681.58;2315170;76;51722;-81
2024/04/07 00:08:05;;;;;;;1.95;1.50;;;;;;;21.26;49.78;100680.53;2317053;76;51479;-81
2024/04/07 00:11:07;;;;;;;1.67;1.57;;;;;;;21.25;49.73;100675.67;2291203;76;50686;-81
2024/04/07 00:14:10;;;;;;;2.35;1.67;;;;;;;21.25;49.72;100672.98;2291057;76;50977;-81
2024/04/07 00:17:12;;;;;;;3.08;1.77;;;;;;;21.24;49.74;100672.64;2315161;76;50849;-82
2024/04/07 00:20:14;;;;;;;1.55;1.45;;;;;;;21.23;49.80;100676.38;2316912;76;51445;-80
2024/04/07 00:23:21;;;;;;;2.08;1.57;;;;;;;21.26;49.79;100680.53;2284108;76;50107;-82
2024/04/07 00:26:21;;;;;;;2.92;1.60;;;;;;;21.26;49.75;100676.50;2291426;76;22317;-81
2024/04/07 00:29:23;;;;;;;2.02;1.50;;;;;;;21.28;49.70;100674.44;2315228;76;51579;-83
2024/04/07 00:32:25;;;;;;;1.60;1.50;;;;;;;21.26;49.71;100672.46;2315280;76;50775;-81
2024/04/07 00:35:28;;;;;;;2.40;1.65;;;;;;;21.26;49.72;100675.97;2314894;76;51787;-81
2024/04/07 00:38:30;;;;;;;3.00;1.80;;;;;;;21.24;49.73;100670.48;2290876;76;51005;-82
2024/04/07 00:41:33;;;;;;;3.05;1.60;;;;;;;21.25;49.70;100670.81;2316861;76;51600;-82
2024/04/07 00:44:36;;;;;;;1.60;1.47;;;;;;;21.27;49.64;100668.72;2315237;76;51484;-82
2024/04/07 00:47:38;;;;;;;7.25;1.70;;;;;;;21.27;49.65;100668.23;2284016;76;50939;-82
2024/04/07 00:50:40;;;;;;;1.75;1.45;;;;;;;21.28;49.61;100656.95;2315115;76;51430;-83
2024/04/07 00:53:42;;;;;;;1.95;1.75;;;;;;;21.28;49.65;100661.81;2314679;76;51470;-82
2024/04/07 00:56:44;;;;;;;2.08;1.80;;;;;;;21.28;49.63;100666.37;2314856;76;50330;-83
2024/04/07 00:59:47;;;;;;;2.67;1.60;;;;;;;21.28;49.58;100656.95;2315364;76;50452;-82
2024/04/07 01:02:50;;;;;;;2.22;1.57;;;;;;;21.28;49.55;100659.12;2291229;76;51089;-81
2024/04/07 01:05:52;;;;;;;1.80;1.60;;;;;;;21.28;49.51;100653.73;2315212;76;50428;-82
2024/04/07 01:08:54;;;;;;;1.65;1.55;;;;;;;21.30;49.50;100653.55;2315395;76;50418;-82
2024/04/07 01:11:56;;;;;;;1.67;1.57;;;;;;;21.29;49.46;100657.25;2291138;76;50087;-82
2024/04/07 01:14:58;;;;;;;1.92;1.60;;;;;;;21.30;49.44;100654.89;2315383;76;51733;-82
2024/04/07 01:18:00;;;;;;;1.98;1.57;;;;;;;21.30;49.42;100653.55;2315470;76;50665;-82
2024/04/07 01:21:03;;;;;;;2.08;1.70;;;;;;;21.32;49.38;100651.46;2315301;76;51377;-81
2024/04/07 01:24:07;;;;;;;2.62;1.72;;;;;;;21.31;49.36;100645.78;2291147;76;50673;-81
2024/04/07 01:27:09;;;;;;;2.22;1.75;;;;;;;21.30;49.35;100647.64;2283702;76;50145;-81
2024/04/07 01:30:11;;;;;;;2.65;1.60;;;;;;;21.31;49.35;100644.43;2315307;76;51481;-80
2024/04/07 01:33:15;;;;;;;2.02;1.70;;;;;;;21.29;49.37;100643.27;2317183;76;50767;-82
2024/04/07 01:36:17;;;;;;;1.75;1.65;;;;;;;21.29;49.41;100646.48;2291065;76;52524;-81
2024/04/07 01:39:19;;;;;;;1.92;1.70;;;;;;;21.29;49.40;100643.27;2317048;76;51416;-82
2024/04/07 01:42:22;;;;;;;2.25;1.62;;;;;;;21.29;49.40;100649.17;2315448;76;51542;-81
2024/04/07 01:45:24;;;;;;;1.77;1.55;;;;;;;21.28;49.40;100638.94;2315184;76;51462;-82
2024/04/07 01:48:26;;;;;;;2.10;1.75;;;;;;;21.29;49.38;100623.09;2317287;76;51423;-81
2024/04/07 01:51:28;;;;;;;2.37;1.52;;;;;;;21.30;49.35;100611.83;2284427;76;51045;-82
2024/04/07 01:54:32;;;;;;;1.90;1.60;;;;;;;21.29;49.36;100611.50;2315424;76;51763;-82
2024/04/07 01:57:36;;;;;;;1.75;1.62;;;;;;;21.29;49.30;100608.28;2315312;76;50652;-82
2024/04/07 02:00:38;;;;;;;2.20;1.70;;;;;;;21.31;49.25;100610.27;2284425;76;50915;-82
2024/04/07 02:03:40;;;;;;;1.57;1.42;;;;;;;21.31;49.27;100606.23;2315487;76;50409;-81
2024/04/07 02:06:42;;;;;;;1.72;1.60;;;;;;;21.30;49.25;100605.93;2315274;76;50226;-82
2024/04/07 02:09:49;;;;;;;2.00;1.55;;;;;;;21.30;49.26;100607.80;2315228;76;50708;-82
2024/04/07 02:12:51;;;;;;;2.02;1.60;;;;;;;21.33;49.18;100610.08;2315362;76;50722;-81
2024/04/07 02:15:55;;;;;;;1.98;1.60;;;;;;;21.32;49.11;100597.63;2290854;76;50964;-83
2024/04/07 02:18:57;;;;;;;2.17;1.57;;;;;;;21.32;49.09;100594.94;2315437;76;50993;-82
2024/04/07 02:21:59;;;;;;;1.60;1.50;;;;;;;21.31;49.16;100599.50;2315354;76;50223;-82
2024/04/07 02:25:01;;;;;;;1.65;1.55;;;;;;;21.30;49.14;100597.85;2290852;76;50176;-81
2024/04/07 02:28:04;;;;;;;1.80;1.70;;;;;;;21.29;49.16;100598.05;2315362;76;51566;-82
2024/04/07 02:31:07;;;;;;;1.92;1.77;;;;;;;21.30;49.17;100598.38;2317180;76;51562;-81
2024/04/07 02:34:09;;;;;;;1.70;1.60;;;;;;;21.30;49.14;100597.03;2315355;76;51543;-84
2024/04/07 02:37:11;;;;;;;1.50;1.40;;;;;;;21.30;49.14;100595.69;2315104;76;51506;-82
2024/04/07 02:40:13;;;;;;;1.62;1.32;;;;;;;21.30;49.11;100592.47;2290988;76;50138;-82
2024/04/07 02:43:16;;;;;;;2.10;1.62;;;;;;;21.30;49.08;100588.95;2291052;76;50681;-82
2024/04/07 02:49:38;;;;;;;1.60;1.50;;;;;;;21.30;49.00;100591.12;2315979;76;22432;-83
2024/04/07 02:52:41;;;;;;;1.90;1.70;;;;;;;21.30;48.96;100595.16;2315342;76;50417;-81
2024/04/07 02:55:43;;;;;;;2.10;1.90;;;;;;;21.31;48.93;100590.60;2315139;76;50751;-82
2024/04/07 02:58:45;;;;;;;2.00;1.50;;;;;;;21.30;48.91;100589.78;2315513;76;50341;-82
2024/04/07 03:01:47;;;;;;;2.30;1.70;;;;;;;21.30;48.89;100591.12;2315656;76;50931;-80
2024/04/07 03:04:50;;;;;;;2.00;1.77;;;;;;;21.30;48.89;100589.78;2315545;76;51406;-81
2024/04/07 03:07:52;;;;;;;2.22;2.02;;;;;;;21.30;48.87;100589.78;2291041;76;51365;-81
2024/04/07 03:11:01;;;;;;;1.90;1.67;;;;;;;21.30;48.85;100592.47;2315440;76;50820;-81
2024/04/07 03:14:05;;;;;;;2.75;2.00;;;;;;;21.29;48.90;100586.75;2284582;76;50852;-81
2024/04/07 03:17:07;;;;;;;1.80;1.50;;;;;;;21.30;48.95;100586.27;2315290;76;51261;-80
2024/04/07 03:20:10;;;;;;;2.72;1.82;;;;;;;21.28;48.95;100583.77;2291235;76;51289;-81
2024/04/07 03:23:12;;;;;;;1.70;1.60;;;;;;;21.28;48.97;100578.38;2315540;76;50434;-81
2024/04/07 03:26:14;;;;;;;2.55;1.80;;;;;;;21.27;49.12;100580.77;2315283;76;51500;-81
2024/04/07 03:29:16;;;;;;;2.12;1.80;;;;;;;21.27;49.00;100573.19;2291287;76;51077;-80
2024/04/07 03:32:19;;;;;;;2.90;1.87;;;;;;;21.27;49.01;100575.87;2315436;76;51536;-80
2024/04/07 03:35:21;;;;;;;3.12;1.80;;;;;;;21.27;49.08;100574.53;2317022;75;52069;-81
2024/04/07 03:38:23;;;;;;;2.80;1.60;;;;;;;21.27;49.12;100574.53;2291155;76;50971;-81
2024/04/07 03:41:25;;;;;;;2.33;1.80;;;;;;;21.27;49.02;100575.87;2315440;76;50362;-80
2024/04/07 03:44:28;;;;;;;1.98;1.75;;;;;;;21.26;49.09;100573.70;2315609;76;50362;-82
2024/04/07 03:47:30;;;;;;;1.70;1.60;;;;;;;21.27;49.08;100578.57;2291161;76;50746;-81
2024/04/07 03:50:32;;;;;;;2.10;1.80;;;;;;;21.28;48.99;100577.56;2315563;76;50402;-81
2024/04/07 03:53:34;;;;;;;2.05;1.85;;;;;;;21.27;48.99;100587.98;2291284;76;49911;-81
2024/04/07 03:56:36;;;;;;;1.98;1.77;;;;;;;21.26;49.00;100583.65;2315307;76;51521;-82
2024/04/07 03:59:39;;;;;;;2.20;1.80;;;;;;;21.27;48.91;100594.72;2315388;76;50729;-81
2024/04/07 04:02:41;;;;;;;2.40;1.85;;;;;;;21.27;48.97;100592.03;2291343;76;51088;-82
2024/04/07 04:05:43;;;;;;;2.00;1.80;;;;;;;21.25;48.99;100583.35;2315145;76;50353;-81
2024/04/07 04:08:48;;;;;;;2.40;1.90;;;;;;;21.23;49.05;100584.06;2315351;76;50396;-82
2024/04/07 04:11:50;;;;;;;1.80;1.67;;;;;;;21.24;49.05;100585.70;2315450;76;50760;-82
2024/04/07 04:14:56;;;;;;;2.62;1.92;;;;;;;21.21;49.09;100580.73;2315181;76;51590;-84
2024/04/07 04:17:58;;;;;;;2.60;1.70;;;;;;;21.20;49.12;100579.09;2315032;76;50434;-81
2024/04/07 04:21:01;;;;;;;2.12;1.92;;;;;;;21.19;49.15;100568.81;2315154;76;50680;-80
2024/04/07 04:24:03;;;;;;;1.67;1.57;;;;;;;21.18;49.15;100565.83;2315260;76;51608;-81
2024/04/07 04:27:05;;;;;;;2.12;1.80;;;;;;;21.18;49.17;100569.86;2284144;76;50051;-81
2024/04/07 04:30:08;;;;;;;2.08;1.67;;;;;;;21.19;49.18;100573.38;2290930;76;51442;-82
2024/04/07 04:33:10;;;;;;;2.25;2.00;;;;;;;21.19;49.20;100566.65;2315276;76;50807;-82
2024/04/07 04:36:15;;;;;;;3.02;2.00;;;;;;;21.19;49.14;100568.00;2315088;76;51473;-81
2024/04/07 04:39:17;;;;;;;;;;;;;;;21.18;49.15;100559.63;2318047;76;51611;-81
2024/04/07 04:42:19;;;;;;;2.27;1.75;;;;;;;21.18;49.14;100559.63;2315286;76;50276;-81
2024/04/07 04:45:21;;;;;;;1.90;1.80;;;;;;;21.19;49.13;100561.27;2315093;76;50451;-80
2024/04/07 04:48:24;;;;;;;1.85;1.62;;;;;;;21.18;49.11;100556.93;2315197;76;50140;-81
2024/04/07 04:51:26;;;;;;;2.17;1.92;;;;;;;21.18;49.12;100556.41;2291034;76;49361;-81
2024/04/07 04:54:28;;;;;;;2.30;1.87;;;;;;;21.17;49.08;100552.56;2315345;76;50857;-81
2024/04/07 04:57:30;;;;;;;2.17;1.80;;;;;;;21.16;49.13;100549.05;2315346;76;50623;-82
2024/04/07 05:00:33;;;;;;;2.40;1.98;;;;;;;21.19;49.20;100549.16;2291313;76;49403;-82
2024/04/07 05:03:35;;;;;;;2.17;1.80;;;;;;;21.19;49.23;100541.09;2315476;76;50687;-82
2024/04/07 05:06:37;;;;;;;2.40;1.82;;;;;;;21.20;49.19;100539.55;2315268;76;52362;-81
2024/04/07 05:09:40;;;;;;;1.82;1.72;;;;;;;21.20;49.20;100533.34;2315428;76;51494;-80
2024/04/07 05:12:42;;;;;;;1.85;1.65;;;;;;;21.21;49.18;100533.13;2315454;76;51557;-82
2024/04/07 05:15:47;;;;;;;2.10;1.90;;;;;;;21.21;49.16;100533.65;2315160;76;50223;-81
2024/04/07 05:18:49;;;;;;;;;;;;;;;21.21;49.09;100527.74;2317657;75;50454;-82
2024/04/07 05:21:51;;;;;;;1.90;1.62;;;;;;;21.20;49.08;100527.96;2315351;76;51512;-82
2024/04/07 05:24:53;;;;;;;1.87;1.65;;;;;;;21.19;49.08;100535.19;2291082;76;50936;-81
2024/04/07 05:27:55;;;;;;;2.40;1.80;;;;;;;21.18;49.04;100536.23;2315373;76;50388;-81
2024/04/07 05:30:58;;;;;;;2.35;2.00;;;;;;;21.18;49.04;100531.37;2315505;76;51537;-80
2024/04/07 05:34:00;;;;;;;1.95;1.85;;;;;;;21.18;49.01;100542.95;2290565;76;49767;-81
2024/04/07 05:37:03;;;;;;;1.70;1.57;;;;;;;21.19;49.00;100547.81;2315184;76;51525;-82
2024/04/07 05:40:05;;;;;;;1.98;1.72;;;;;;;21.19;49.00;100542.43;2291231;76;51260;-81
2024/04/07 05:43:07;;;;;;;2.58;1.92;;;;;;;21.18;49.00;100536.75;2291468;76;50243;-82
2024/04/07 05:46:11;;;;;;;1.95;1.75;;;;;;;21.17;49.00;100527.85;2315225;76;50819;-82
2024/04/07 05:49:13;;;;;;;2.10;1.90;;;;;;;21.19;48.96;100541.09;2291141;76;50246;-82
2024/04/07 05:52:16;;;;;;;2.45;1.77;;;;;;;21.19;48.93;100541.09;2315352;76;51475;-82
2024/04/07 05:55:18;;;;;;;3.22;1.70;;;;;;;21.20;48.98;100544.11;2291266;76;49914;-80
2024/04/07 05:58:20;;;;;;;1.80;1.60;;;;;;;21.20;49.00;100557.05;2291002;76;51548;-81
2024/04/07 06:01:22;;;;;;;1.82;1.67;;;;;;;21.20;48.97;100565.64;2315504;76;50725;-81
2024/04/07 06:04:25;;;;;;;3.02;1.62;;;;;;;21.21;48.98;100576.18;2290907;76;51471;-82
2024/04/07 06:07:27;;;;;;;1.98;1.77;;;;;;;21.22;48.97;100581.04;2291050;76;49828;-81
2024/04/07 06:10:30;;;;;;;1.80;1.70;;;;;;;21.22;48.96;100592.66;2315471;76;50719;-82
2024/04/07 06:13:32;;;;;;;1.92;1.67;;;;;;;21.21;49.03;100600.92;2315502;76;50450;-81
2024/04/07 06:16:35;;;;;;;2.30;1.80;;;;;;;21.22;49.03;100611.49;2290882;76;50091;-82
2024/04/07 06:19:37;;;;;;;1.85;1.70;;;;;;;21.23;49.06;100623.91;2315433;76;50784;-81
2024/04/07 06:22:39;;;;;;;2.33;2.10;;;;;;;21.23;48.99;100627.94;2317056;76;51556;-81
2024/04/07 06:25:42;;;;;;;3.50;1.70;;;;;;;21.24;48.91;100648.95;2315242;76;50728;-81
2024/04/07 06:28:44;;;;;;;2.33;1.80;;;;;;;21.23;48.87;100666.96;2315561;76;51009;-81
2024/04/07 06:31:46;;;;;;;2.20;1.57;;;;;;;21.24;48.83;100669.12;2291125;76;50079;-80
2024/04/07 06:34:48;;;;;;;2.00;1.60;;;;;;;21.25;48.79;100679.71;2315384;76;51572;-81
2024/04/07 06:37:50;;;;;;;2.10;1.75;;;;;;;21.25;48.82;100682.92;2315289;76;51383;-81
2024/04/07 06:40:53;;;;;;;2.08;1.87;;;;;;;21.25;48.78;100664.08;2291265;76;51057;-81
2024/04/07 06:43:55;;;;;;;2.27;2.08;;;;;;;21.26;48.77;100668.42;2315345;76;50754;-82
2024/04/07 06:46:58;;;;;;;1.98;1.77;;;;;;;21.26;48.88;100668.42;2314988;76;50766;-82
2024/04/07 06:50:00;;;;;;;2.02;1.80;;;;;;;21.27;48.99;100670.07;2291022;76;51408;-81
2024/04/07 06:53:03;;;;;;;2.20;1.72;;;;;;;21.29;48.99;100677.44;2315273;76;51521;-81
2024/04/07 06:56:05;;;;;;;2.50;1.87;;;;;;;21.29;49.04;100668.02;2290839;76;51003;-82
2024/04/07 06:59:07;;;;;;;1.90;1.70;;;;;;;21.29;49.06;100670.70;2291362;76;50777;-80
2024/04/07 07:02:09;;;;;;;2.20;2.00;;;;;;;21.30;49.02;100672.39;2315279;76;51747;-81
2024/04/07 07:05:12;;;;;;;2.08;1.87;;;;;;;21.30;48.98;100676.42;2290373;76;51052;-81
2024/04/07 07:08:15;;;;;;;2.08;1.82;;;;;;;21.30;48.97;100685.84;2315409;76;50382;-81
2024/04/07 07:11:17;;;;;;;2.22;1.65;;;;;;;21.30;48.98;100679.11;2315376;76;51857;-81
2024/04/07 07:14:19;;;;;;;1.72;1.62;;;;;;;21.31;48.96;100695.56;2315256;76;51426;-82
2024/04/07 07:17:21;;;;;;;2.15;1.75;;;;;;;21.30;48.91;100692.05;2290703;76;51375;-81
2024/04/07 07:20:23;;;;;;;1.87;1.77;;;;;;;21.30;48.91;100694.74;2290942;76;51148;-82
2024/04/07 07:23:26;;;;;;;1.82;1.72;;;;;;;21.31;48.85;100703.64;2290786;76;50075;-82
2024/04/07 07:26:28;;;;;;;2.60;2.10;;;;;;;21.32;48.89;100707.98;2315092;76;52452;-81
2024/04/07 07:29:30;;;;;;;2.00;1.80;;;;;;;21.32;48.88;100713.36;2291050;76;49484;-82
2024/04/07 07:32:33;;;;;;;2.95;1.87;;;;;;;21.33;48.91;100716.91;2315507;76;50442;-81
2024/04/07 07:35:37;;;;;;;2.00;1.90;;;;;;;21.33;48.91;100725.81;2315063;76;50684;-82
2024/04/07 07:38:39;;;;;;;2.10;1.80;;;;;;;21.33;48.96;100727.67;2315340;76;50269;-83
2024/04/07 07:41:42;;;;;;;1.95;1.70;;;;;;;21.33;49.05;100721.77;2315245;76;51510;-82
2024/04/07 07:44:44;;;;;;;3.05;2.05;;;;;;;21.34;49.11;100724.77;2265204;76;51013;-81
2024/04/07 07:47:46;;;;;;;2.98;1.80;;;;;;;21.34;49.16;100739.57;2314949;76;50934;-82
2024/04/07 07:50:48;;;;;;;1.80;1.65;;;;;;;21.34;49.07;100746.30;2316885;76;51505;-81
2024/04/07 07:53:50;;;;;;;1.87;1.70;;;;;;;21.33;49.19;100740.61;2290964;76;49570;-81
2024/04/07 07:56:53;;;;;;;1.75;1.60;;;;;;;21.35;49.16;100745.78;2315014;76;50488;-81
2024/04/07 07:59:55;;;;;;;1.60;1.50;;;;;;;21.35;49.12;100756.55;2316835;76;50898;-82
2024/04/07 08:02:59;;;;;;;1.82;1.55;;;;;;;21.35;49.06;100761.93;2315064;76;51461;-81
2024/04/07 08:06:01;;;;;;;2.10;1.90;;;;;;;21.36;49.03;100768.47;2315063;76;51232;-84
2024/04/07 08:09:03;;;;;;;1.62;1.42;;;;;;;21.37;48.37;100763.91;2291308;76;49613;-81
2024/04/07 08:12:06;;;;;;;2.55;1.72;;;;;;;21.37;48.82;100781.41;2317188;76;50679;-82
2024/04/07 08:15:08;;;;;;;2.30;1.40;;;;;;;21.39;48.24;100775.34;2290928;76;53510;-81
2024/04/07 08:18:11;;;;;;;2.90;1.70;;;;;;;21.38;48.11;100779.05;2290800;76;49940;-82
2024/04/07 08:21:13;;;;;;;2.37;1.72;;;;;;;21.37;48.17;100780.89;2315197;76;51488;-83
2024/04/07 08:24:15;;;;;;;1.60;1.50;;;;;;;21.38;47.94;100793.37;2315076;76;50414;-81
2024/04/07 08:27:17;;;;;;;2.25;1.77;;;;;;;21.38;47.93;100787.98;2316542;76;50476;-82
2024/04/07 08:30:20;;;;;;;2.62;1.87;;;;;;;21.39;47.86;100794.19;2314887;76;50676;-81
2024/04/07 08:33:22;;;;;;;2.35;1.82;;;;;;;21.39;48.05;100786.94;2290934;76;50866;-80
2024/04/07 08:36:24;;;;;;;2.12;1.60;;;;;;;21.40;48.05;100805.27;2316695;75;50597;-82
2024/04/07 08:39:26;;;;;;;2.20;1.98;;;;;;;21.39;48.14;100812.52;2315448;76;50517;-81
2024/04/07 08:42:28;;;;;;;2.45;1.65;;;;;;;21.40;48.20;100811.50;2291249;76;49963;-82
2024/04/07 08:45:31;;;;;;;1.70;1.60;;;;;;;21.41;48.22;100809.12;2315253;76;50803;-81
2024/04/07 08:48:33;;;;;;;3.35;1.82;;;;;;;21.42;48.26;100814.80;2315560;76;50228;-82
2024/04/07 08:51:37;;;;;;;1.87;1.50;;;;;;;21.44;48.32;100820.83;2315461;76;50701;-82
2024/04/07 08:54:39;;;;;;;1.98;1.60;;;;;;;21.45;48.36;100817.13;2315501;76;51549;-82
2024/04/07 08:57:43;;;;;;;1.65;1.45;;;;;;;21.47;48.37;100832.54;2284064;76;50083;-82
2024/04/07 09:00:45;;;;;;;1.98;1.50;;;;;;;21.48;48.38;100837.44;2315597;76;25410;-81
2024/04/07 09:03:47;;;;;;;1.67;1.57;;;;;;;21.48;48.42;100842.30;2315302;76;50942;-82
2024/04/07 09:06:49;;;;;;;1.92;1.50;;;;;;;21.50;48.45;100852.36;2290971;76;49614;-81
2024/04/07 09:09:51;;;;;;;2.65;1.50;;;;;;;21.50;48.45;100855.05;2315410;76;50703;-82
2024/04/07 09:12:54;;;;;;;2.02;1.47;;;;;;;21.51;48.40;100847.80;2315394;76;51585;-81
2024/04/07 09:15:56;;;;;;;1.57;1.42;;;;;;;21.53;48.41;100847.09;2315247;76;51772;-80
2024/04/07 09:18:58;;;;;;;1.62;1.52;;;;;;;21.55;48.38;100845.02;2315451;76;51413;-81
2024/04/07 09:22:02;;;;;;;2.25;1.57;;;;;;;21.57;48.27;100859.12;2291077;76;49756;-80
2024/04/07 09:25:04;;;;;;;1.85;1.50;;;;;;;21.59;48.31;100861.63;2315376;76;51575;-82
2024/04/07 09:28:07;;;;;;;2.17;1.60;;;;;;;21.59;48.27;100867.02;2291250;76;50375;-82
2024/04/07 09:31:09;;;;;;;2.33;1.70;;;;;;;21.61;48.30;100856.88;2290949;76;50905;-81
2024/04/07 09:34:11;;;;;;;2.15;1.60;;;;;;;21.61;48.25;100864.44;2315255;76;51503;-81
2024/04/07 09:37:13;;;;;;;2.45;1.50;;;;;;;21.61;48.34;100853.66;2315152;76;50238;-82
2024/04/07 09:40:16;;;;;;;1.70;1.30;;;;;;;21.61;48.33;100856.88;2315254;76;50763;-82
2024/04/07 09:43:18;;;;;;;3.00;1.57;;;;;;;21.62;48.34;100865.27;2291326;76;50462;-82
2024/04/07 09:46:22;;;;;;;1.50;1.40;;;;;;;21.63;48.32;100861.53;2290673;76;50054;-81
2024/04/07 09:49:24;;;;;;;1.60;1.50;;;;;;;21.63;48.35;100864.22;2315326;76;50682;-82
2024/04/07 09:52:30;;;;;;;1.75;1.55;;;;;;;21.63;48.33;100870.47;2315398;76;50397;-81
2024/04/07 09:55:33;;;;;;;;;;;;;;;21.63;48.35;100873.16;2293727;76;49727;-81
2024/04/07 09:58:35;;;;;;;2.15;1.50;;;;;;;21.63;48.42;100877.69;2315562;76;50376;-81
2024/04/07 10:01:37;;;;;;;4.03;1.60;;;;;;;21.65;48.45;100887.75;2315221;76;50724;-83
2024/04/07 10:04:40;;;;;;;2.12;1.50;;;;;;;21.63;48.41;100887.11;2291036;76;51130;-82
2024/04/07 10:07:42;;;;;;;1.85;1.70;;;;;;;21.64;48.44;100894.18;2315371;76;52244;-82
2024/04/07 10:10:44;;;;;;;1.85;1.67;;;;;;;21.64;48.36;100886.92;2315392;76;51522;-83
2024/04/07 10:13:47;;;;;;;2.12;1.50;;;;;;;21.65;48.39;100896.66;2315237;76;51538;-81
2024/04/07 10:16:51;;;;;;;2.02;1.40;;;;;;;21.64;48.39;100897.70;2316732;75;51144;-82
2024/04/07 10:19:54;;;;;;;1.90;1.40;;;;;;;21.66;48.43;100901.55;2291058;76;51044;-81
2024/04/07 10:22:59;;;;;;;2.70;1.57;;;;;;;21.65;48.36;100900.70;2317008;76;50800;-82
2024/04/07 10:26:04;;;;;;;1.60;1.50;;;;;;;21.65;48.36;100906.60;2315008;76;51488;-82
2024/04/07 10:29:09;;;;;;;1.98;1.40;;;;;;;21.67;48.41;100918.02;2284165;76;51698;-82
2024/04/07 10:32:20;;;;;;;1.80;1.35;;;;;;;21.67;48.41;100918.02;2315383;76;51402;-81
2024/04/07 10:35:22;;;;;;;2.72;1.57;;;;;;;21.66;48.35;100919.06;2314423;75;51498;-82
2024/04/07 10:38:25;;;;;;;2.62;1.62;;;;;;;21.67;48.39;100918.02;2315275;76;52411;-81
2024/04/07 10:41:34;;;;;;;1.70;1.50;;;;;;;21.69;48.37;100925.39;2315287;76;50711;-82
2024/04/07 10:44:36;;;;;;;1.50;1.40;;;;;;;21.69;48.32;100932.13;2290841;76;49400;-82
2024/04/07 10:47:38;;;;;;;2.30;1.50;;;;;;;21.68;48.30;100939.87;2315134;76;50793;-81
2024/04/07 10:50:41;;;;;;;1.85;1.65;;;;;;;21.68;48.35;100938.52;2315302;76;51481;-81
2024/04/07 10:53:43;;;;;;;3.30;1.32;;;;;;;21.68;48.31;100947.45;2291024;76;49726;-81
2024/04/07 10:56:46;;;;;;;1.80;1.20;;;;;;;21.68;48.30;100956.03;2315048;76;50760;-81
2024/04/07 10:59:48;;;;;;;1.50;1.37;;;;;;;21.68;48.30;100951.98;2315314;76;50401;-80
2024/04/07 11:02:52;;;;;;;3.35;1.62;;;;;;;21.66;48.27;100948.16;2315302;76;50751;-81
2024/04/07 11:05:56;;;;;;;3.37;1.62;;;;;;;21.67;48.27;100945.77;2315355;76;24491;-82
2024/04/07 11:08:58;;;;;;;1.45;1.35;;;;;;;21.67;48.31;100947.12;2290929;76;50185;-82
2024/04/07 11:12:00;;;;;;;2.08;1.35;;;;;;;21.68;48.29;100959.58;2316520;76;50416;-81
2024/04/07 11:15:24;;;;;;;1.85;1.40;;;;;;;21.69;48.30;100963.09;2314876;76;52015;-80
2024/04/07 11:18:24;;;;;;;2.20;1.50;;;;;;;21.68;48.29;100954.68;2290058;76;23261;-82
2024/04/07 11:21:27;;;;;;;2.47;1.50;;;;;;;21.67;48.29;100961.94;2315074;76;50444;-81
2024/04/07 11:24:29;;;;;;;2.20;1.32;;;;;;;21.67;48.30;100953.85;2291002;76;51490;-81
2024/04/07 11:27:32;;;;;;;2.90;1.50;;;;;;;21.67;48.30;100971.88;2314986;76;51625;-82
2024/04/07 11:30:36;;;;;;;2.15;1.50;;;;;;;21.67;48.33;100970.53;2315396;76;50908;-81
2024/04/07 11:33:39;;;;;;;2.58;1.50;;;;;;;21.69;48.33;100973.88;2291256;76;50095;-83
2024/04/07 11:36:41;;;;;;;2.37;1.50;;;;;;;21.71;48.35;100973.16;2315145;76;50473;-82
2024/04/07 11:39:50;;;;;;;1.37;1.27;;;;;;;21.72;48.31;100965.39;2315425;76;50690;-83
2024/04/07 11:42:47;;;;;;;1.60;1.50;;;;;;;21.73;48.30;100977.33;2314664;76;22635;-82
2024/04/07 11:45:50;;;;;;;1.70;1.40;;;;;;;21.74;48.32;100990.27;2315044;76;51991;-83
2024/04/07 11:48:52;;;;;;;2.42;1.57;;;;;;;21.73;48.32;100986.75;2315379;76;51648;-81
2024/04/07 11:51:54;;;;;;;1.60;1.20;;;;;;;21.74;48.33;100999.70;2315191;76;51510;-82
2024/04/07 11:54:56;;;;;;;1.30;1.20;;;;;;;21.77;48.37;100992.57;2315227;76;50334;-82
2024/04/07 11:57:58;;;;;;;1.82;1.60;;;;;;;21.79;48.39;100993.73;2291104;76;49545;-82
2024/04/07 12:01:01;;;;;;;1.92;1.40;;;;;;;21.78;48.41;100980.75;2315485;76;50718;-82
2024/04/07 12:04:03;;;;;;;1.70;1.40;;;;;;;21.79;48.36;100970.84;2315452;76;51539;-81
2024/04/07 12:07:05;;;;;;;3.17;1.40;;;;;;;21.78;48.34;100965.94;2284055;76;50945;-83
2024/04/07 12:10:08;;;;;;;2.80;1.40;;;;;;;21.78;48.31;100961.08;2315279;76;50793;-82
2024/04/07 12:13:11;;;;;;;2.55;1.57;;;;;;;21.79;48.33;100964.93;2315283;76;50498;-80
2024/04/07 12:16:14;;;;;;;1.62;1.15;;;;;;;21.82;48.29;100979.87;2315000;76;52446;-82
2024/04/07 12:19:16;;;;;;;3.20;1.37;;;;;;;21.80;48.32;100969.28;2315268;76;51532;-81
2024/04/07 12:22:21;;;;;;;1.72;1.12;;;;;;;21.80;48.37;100981.39;2291049;76;49550;-81
2024/04/07 12:25:25;;;;;;;1.98;1.40;;;;;;;21.82;48.30;100979.34;2317046;75;51107;-82
2024/04/07 12:28:27;;;;;;;2.05;1.57;;;;;;;21.83;48.36;100975.61;2317361;75;22571;-82
2024/04/07 12:31:29;;;;;;;1.90;1.10;;;;;;;21.83;48.41;100966.18;2290819;76;51249;-83
2024/04/07 12:34:31;;;;;;;2.37;1.37;;;;;;;21.84;48.39;100971.08;2315321;76;50710;-82
2024/04/07 12:37:34;;;;;;;2.20;1.67;;;;;;;21.84;48.40;100978.64;2316776;76;52393;-81
2024/04/07 12:40:36;;;;;;;1.62;1.37;;;;;;;21.85;48.44;100971.39;2315141;76;51446;-81
2024/04/07 12:43:38;;;;;;;1.98;1.60;;;;;;;21.86;48.41;100973.04;2315217;76;51456;-81
2024/04/07 12:46:40;;;;;;;1.87;1.40;;;;;;;21.86;48.41;100979.28;2290714;76;49508;-80
2024/04/07 12:49:42;;;;;;;2.20;1.42;;;;;;;21.86;48.29;100986.02;2315241;76;50470;-81
2024/04/07 12:52:47;;;;;;;1.27;1.17;;;;;;;21.87;48.33;100983.63;2315213;76;50680;-82
2024/04/07 12:55:48;;;;;;;2.45;1.47;;;;;;;21.88;48.32;100978.55;2315440;76;22740;-81
2024/04/07 12:58:51;;;;;;;2.60;1.57;;;;;;;21.87;48.30;100967.47;2315342;76;50390;-82
2024/04/07 13:01:53;;;;;;;3.17;1.30;;;;;;;21.88;48.33;100958.34;2315431;76;50001;-81
2024/04/07 13:04:55;;;;;;;3.37;1.47;;;;;;;21.89;48.28;100953.81;2290836;76;50031;-81
2024/04/07 13:07:57;;;;;;;2.83;1.37;;;;;;;21.89;48.27;100940.34;2315272;76;51459;-81
2024/04/07 13:11:01;;;;;;;2.15;1.30;;;;;;;21.89;48.19;100934.95;2290921;76;51750;-81
2024/04/07 13:14:03;;;;;;;1.70;1.27;;;;;;;21.88;48.19;100934.09;2315255;76;51659;-81
2024/04/07 13:17:05;;;;;;;1.70;1.40;;;;;;;21.90;48.26;100926.66;2315039;76;51395;-82
2024/04/07 13:20:08;;;;;;;2.52;1.50;;;;;;;21.91;48.23;100928.34;2291033;76;51000;-81
2024/04/07 13:23:10;;;;;;;1.92;1.45;;;;;;;21.91;48.24;100928.34;2290953;76;51485;-80
2024/04/07 13:26:12;;;;;;;1.60;1.50;;;;;;;21.92;48.09;100925.13;2314952;76;51496;-80
2024/04/07 13:29:15;;;;;;;3.02;1.60;;;;;;;21.92;48.15;100926.47;2315069;76;50762;-81
2024/04/07 13:32:17;;;;;;;1.70;1.22;;;;;;;21.93;48.13;100908.73;2315255;76;51524;-81
2024/04/07 13:35:19;;;;;;;2.27;1.30;;;;;;;21.94;48.15;100903.69;2290576;76;51161;-81
2024/04/07 13:38:21;;;;;;;2.10;1.50;;;;;;;21.93;48.19;100904.70;2291087;76;50379;-82
2024/04/07 13:41:23;;;;;;;1.95;1.37;;;;;;;21.94;48.31;100918.50;2315377;76;50154;-81
2024/04/07 13:44:27;;;;;;;1.62;1.30;;;;;;;21.95;48.25;100919.33;2290810;76;49894;-81
2024/04/07 13:47:29;;;;;;;1.75;1.42;;;;;;;21.94;48.14;100895.60;2315166;76;51471;-82
2024/04/07 13:50:31;;;;;;;1.87;1.20;;;;;;;21.95;48.21;100910.72;2315349;76;51475;-82
2024/04/07 13:53:33;;;;;;;2.40;1.50;;;;;;;21.95;48.22;100903.16;2315342;76;50202;-80
2024/04/07 13:56:35;;;;;;;2.77;1.37;;;;;;;21.95;48.19;100902.64;2314994;76;50361;-82
2024/04/07 13:59:38;;;;;;;1.67;1.27;;;;;;;21.96;48.26;100902.98;2290664;76;51587;-82
2024/04/07 14:02:41;;;;;;;2.08;1.40;;;;;;;21.96;48.25;100896.24;2315102;76;51058;-80
2024/04/07 14:05:43;;;;;;;1.30;1.20;;;;;;;21.97;48.31;100895.72;2315003;76;50248;-81
2024/04/07 14:08:46;;;;;;;2.08;1.47;;;;;;;21.97;48.24;100895.72;2290844;76;49517;-82
2024/04/07 14:11:49;;;;;;;2.00;1.20;;;;;;;21.97;48.16;100907.84;2315153;76;50915;-81
2024/04/07 14:14:51;;;;;;;2.25;1.20;;;;;;;21.97;48.08;100913.23;2316877;76;50134;-81